sensor_id;sensor_type;location;lat;lon;timestamp;P1;durP1;ratioP1;P2;durP2;ratioP2
17461;SDS011;8848;50.810;4.790;2022-08-18T00:02:20;5.82;;;5.43;;
17461;SDS011;8848;50.810;4.790;2022-08-18T00:04:48;6.18;;;5.68;;
17461;SDS011;8848;50.810;4.790;2022-08-18T00:07:16;6.68;;;6.28;;
17461;SDS011;8848;50.810;4.790;2022-08-18T00:09:43;6.40;;;6.00;;
17461;SDS011;8848;50.810;4.790;2022-08-18T00:12:17;5.90;;;5.50;;
17461;SDS011;8848;50.810;4.790;2022-08-18T00:14:44;5.90;;;5.50;;
17461;SDS011;8848;50.810;4.790;2022-08-18T00:17:10;6.28;;;5.88;;
17461;SDS011;8848;50.810;4.790;2022-08-18T00:19:36;6.18;;;5.78;;
17461;SDS011;8848;50.810;4.790;2022-08-18T00:22:02;5.50;;;5.10;;
17461;SDS011;8848;50.810;4.790;2022-08-18T00:24:28;5.75;;;5.35;;
17461;SDS011;8848;50.810;4.790;2022-08-18T00:26:55;5.85;;;5.45;;
17461;SDS011;8848;50.810;4.790;2022-08-18T00:29:21;6.22;;;5.82;;
17461;SDS011;8848;50.810;4.790;2022-08-18T00:31:48;6.20;;;5.80;;
17461;SDS011;8848;50.810;4.790;2022-08-18T00:34:14;5.60;;;5.20;;
17461;SDS011;8848;50.810;4.790;2022-08-18T00:36:40;5.95;;;5.55;;
17461;SDS011;8848;50.810;4.790;2022-08-18T00:39:06;5.70;;;5.30;;
17461;SDS011;8848;50.810;4.790;2022-08-18T00:41:32;5.28;;;4.95;;
17461;SDS011;8848;50.810;4.790;2022-08-18T00:43:58;6.13;;;5.72;;
17461;SDS011;8848;50.810;4.790;2022-08-18T00:46:26;5.75;;;5.35;;
17461;SDS011;8848;50.810;4.790;2022-08-18T00:48:52;5.85;;;5.45;;
17461;SDS011;8848;50.810;4.790;2022-08-18T00:53:49;5.53;;;5.03;;
17461;SDS011;8848;50.810;4.790;2022-08-18T00:56:20;5.20;;;4.80;;
17461;SDS011;8848;50.810;4.790;2022-08-18T00:58:52;5.72;;;5.32;;
17461;SDS011;8848;50.810;4.790;2022-08-18T01:01:21;5.47;;;5.07;;
17461;SDS011;8848;50.810;4.790;2022-08-18T01:03:48;5.80;;;5.40;;
17461;SDS011;8848;50.810;4.790;2022-08-18T01:07:00;6.10;;;5.60;;
17461;SDS011;8848;50.810;4.790;2022-08-18T01:09:07;5.05;;;4.65;;
17461;SDS011;8848;50.810;4.790;2022-08-18T01:11:34;4.55;;;4.25;;
17461;SDS011;8848;50.810;4.790;2022-08-18T01:14:01;5.60;;;5.20;;
17461;SDS011;8848;50.810;4.790;2022-08-18T01:16:28;5.90;;;5.50;;
17461;SDS011;8848;50.810;4.790;2022-08-18T01:19:12;5.97;;;5.57;;
17461;SDS011;8848;50.810;4.790;2022-08-18T01:21:59;5.43;;;5.05;;
17461;SDS011;8848;50.810;4.790;2022-08-18T01:24:28;5.47;;;5.07;;
17461;SDS011;8848;50.810;4.790;2022-08-18T01:27:14;5.57;;;5.18;;
17461;SDS011;8848;50.810;4.790;2022-08-18T01:29:43;5.50;;;5.10;;
17461;SDS011;8848;50.810;4.790;2022-08-18T01:32:09;5.65;;;5.25;;
17461;SDS011;8848;50.810;4.790;2022-08-18T01:34:36;4.88;;;4.57;;
17461;SDS011;8848;50.810;4.790;2022-08-18T01:37:03;6.07;;;5.68;;
17461;SDS011;8848;50.810;4.790;2022-08-18T01:39:29;5.80;;;5.40;;
17461;SDS011;8848;50.810;4.790;2022-08-18T01:41:56;5.78;;;5.38;;
17461;SDS011;8848;50.810;4.790;2022-08-18T01:44:22;5.70;;;5.30;;
17461;SDS011;8848;50.810;4.790;2022-08-18T01:46:49;4.95;;;4.65;;
17461;SDS011;8848;50.810;4.790;2022-08-18T01:49:17;5.30;;;4.93;;
17461;SDS011;8848;50.810;4.790;2022-08-18T01:51:43;4.82;;;4.53;;
17461;SDS011;8848;50.810;4.790;2022-08-18T01:54:11;5.07;;;4.78;;
17461;SDS011;8848;50.810;4.790;2022-08-18T01:56:38;5.70;;;5.30;;
17461;SDS011;8848;50.810;4.790;2022-08-18T01:59:05;5.15;;;4.80;;
17461;SDS011;8848;50.810;4.790;2022-08-18T02:01:36;5.40;;;5.00;;
17461;SDS011;8848;50.810;4.790;2022-08-18T02:04:03;5.85;;;5.45;;
17461;SDS011;8848;50.810;4.790;2022-08-18T02:06:31;5.63;;;5.22;;
17461;SDS011;8848;50.810;4.790;2022-08-18T02:08:57;5.45;;;5.05;;
17461;SDS011;8848;50.810;4.790;2022-08-18T02:11:23;5.88;;;5.47;;
17461;SDS011;8848;50.810;4.790;2022-08-18T02:13:49;5.47;;;5.07;;
17461;SDS011;8848;50.810;4.790;2022-08-18T02:16:15;5.65;;;5.25;;
17461;SDS011;8848;50.810;4.790;2022-08-18T02:18:41;5.47;;;5.07;;
17461;SDS011;8848;50.810;4.790;2022-08-18T02:21:12;6.57;;;6.07;;
17461;SDS011;8848;50.810;4.790;2022-08-18T02:23:38;5.47;;;5.07;;
17461;SDS011;8848;50.810;4.790;2022-08-18T02:26:09;6.60;;;6.10;;
17461;SDS011;8848;50.810;4.790;2022-08-18T02:28:35;5.85;;;5.45;;
17461;SDS011;8848;50.810;4.790;2022-08-18T02:31:05;6.15;;;5.65;;
17461;SDS011;8848;50.810;4.790;2022-08-18T02:33:31;6.60;;;6.10;;
17461;SDS011;8848;50.810;4.790;2022-08-18T02:35:58;6.07;;;5.57;;
17461;SDS011;8848;50.810;4.790;2022-08-18T02:38:24;6.05;;;5.55;;
17461;SDS011;8848;50.810;4.790;2022-08-18T02:40:56;7.35;;;6.85;;
17461;SDS011;8848;50.810;4.790;2022-08-18T02:43:24;6.43;;;5.93;;
17461;SDS011;8848;50.810;4.790;2022-08-18T02:45:50;6.43;;;5.93;;
17461;SDS011;8848;50.810;4.790;2022-08-18T02:48:16;7.40;;;6.90;;
17461;SDS011;8848;50.810;4.790;2022-08-18T02:50:48;7.30;;;6.70;;
17461;SDS011;8848;50.810;4.790;2022-08-18T02:53:14;6.90;;;6.30;;
17461;SDS011;8848;50.810;4.790;2022-08-18T02:55:49;6.80;;;6.30;;
17461;SDS011;8848;50.810;4.790;2022-08-18T02:58:15;6.88;;;6.38;;
17461;SDS011;8848;50.810;4.790;2022-08-18T03:00:44;6.90;;;6.40;;
17461;SDS011;8848;50.810;4.790;2022-08-18T03:03:10;6.00;;;5.60;;
17461;SDS011;8848;50.810;4.790;2022-08-18T03:05:37;6.13;;;5.72;;
17461;SDS011;8848;50.810;4.790;2022-08-18T03:08:03;6.35;;;5.85;;
17461;SDS011;8848;50.810;4.790;2022-08-18T03:10:29;6.57;;;6.07;;
17461;SDS011;8848;50.810;4.790;2022-08-18T03:12:55;6.72;;;6.22;;
17461;SDS011;8848;50.810;4.790;2022-08-18T03:15:21;6.85;;;6.35;;
17461;SDS011;8848;50.810;4.790;2022-08-18T03:17:47;6.05;;;5.65;;
17461;SDS011;8848;50.810;4.790;2022-08-18T03:20:15;5.90;;;5.50;;
17461;SDS011;8848;50.810;4.790;2022-08-18T03:22:41;6.88;;;6.38;;
17461;SDS011;8848;50.810;4.790;2022-08-18T03:25:07;7.55;;;6.95;;
17461;SDS011;8848;50.810;4.790;2022-08-18T03:27:33;6.05;;;5.65;;
17461;SDS011;8848;50.810;4.790;2022-08-18T03:29:59;6.00;;;5.60;;
17461;SDS011;8848;50.810;4.790;2022-08-18T03:32:26;5.65;;;5.25;;
17461;SDS011;8848;50.810;4.790;2022-08-18T03:34:52;6.50;;;5.95;;
17461;SDS011;8848;50.810;4.790;2022-08-18T03:37:18;6.20;;;5.80;;
17461;SDS011;8848;50.810;4.790;2022-08-18T03:39:44;6.35;;;5.90;;
17461;SDS011;8848;50.810;4.790;2022-08-18T03:42:10;5.72;;;5.32;;
17461;SDS011;8848;50.810;4.790;2022-08-18T03:44:37;6.45;;;5.95;;
17461;SDS011;8848;50.810;4.790;2022-08-18T03:47:07;6.30;;;5.80;;
17461;SDS011;8848;50.810;4.790;2022-08-18T03:49:35;5.75;;;5.35;;
17461;SDS011;8848;50.810;4.790;2022-08-18T03:52:02;5.55;;;5.15;;
17461;SDS011;8848;50.810;4.790;2022-08-18T03:54:29;5.80;;;5.40;;
17461;SDS011;8848;50.810;4.790;2022-08-18T03:56:56;6.07;;;5.63;;
17461;SDS011;8848;50.810;4.790;2022-08-18T03:59:23;5.85;;;5.40;;
17461;SDS011;8848;50.810;4.790;2022-08-18T04:01:50;5.68;;;5.18;;
17461;SDS011;8848;50.810;4.790;2022-08-18T04:04:22;6.05;;;5.57;;
17461;SDS011;8848;50.810;4.790;2022-08-18T04:06:49;5.97;;;5.50;;
17461;SDS011;8848;50.810;4.790;2022-08-18T04:09:18;6.20;;;5.72;;
17461;SDS011;8848;50.810;4.790;2022-08-18T04:11:44;5.72;;;5.32;;
17461;SDS011;8848;50.810;4.790;2022-08-18T04:14:11;6.88;;;6.38;;
17461;SDS011;8848;50.810;4.790;2022-08-18T04:16:38;6.30;;;5.90;;
17461;SDS011;8848;50.810;4.790;2022-08-18T04:19:04;6.60;;;6.10;;
17461;SDS011;8848;50.810;4.790;2022-08-18T04:21:32;5.53;;;5.13;;
17461;SDS011;8848;50.810;4.790;2022-08-18T04:23:59;6.60;;;6.18;;
17461;SDS011;8848;50.810;4.790;2022-08-18T04:26:29;6.10;;;5.70;;
17461;SDS011;8848;50.810;4.790;2022-08-18T04:28:55;6.45;;;6.05;;
17461;SDS011;8848;50.810;4.790;2022-08-18T04:31:24;6.60;;;6.13;;
17461;SDS011;8848;50.810;4.790;2022-08-18T04:33:50;6.15;;;5.75;;
17461;SDS011;8848;50.810;4.790;2022-08-18T04:36:17;5.25;;;4.85;;
17461;SDS011;8848;50.810;4.790;2022-08-18T04:38:43;6.32;;;5.82;;
17461;SDS011;8848;50.810;4.790;2022-08-18T04:41:13;6.45;;;5.97;;
17461;SDS011;8848;50.810;4.790;2022-08-18T04:43:39;6.28;;;5.88;;
17461;SDS011;8848;50.810;4.790;2022-08-18T04:46:06;5.72;;;5.32;;
17461;SDS011;8848;50.810;4.790;2022-08-18T04:48:34;6.25;;;5.80;;
17461;SDS011;8848;50.810;4.790;2022-08-18T04:51:07;5.68;;;5.28;;
17461;SDS011;8848;50.810;4.790;2022-08-18T04:53:33;6.30;;;5.80;;
17461;SDS011;8848;50.810;4.790;2022-08-18T04:56:11;6.15;;;5.75;;
17461;SDS011;8848;50.810;4.790;2022-08-18T04:58:38;6.68;;;6.18;;
17461;SDS011;8848;50.810;4.790;2022-08-18T05:01:04;5.20;;;4.80;;
17461;SDS011;8848;50.810;4.790;2022-08-18T05:03:30;6.85;;;6.35;;
17461;SDS011;8848;50.810;4.790;2022-08-18T05:05:57;6.55;;;6.07;;
17461;SDS011;8848;50.810;4.790;2022-08-18T05:08:24;6.70;;;6.20;;
17461;SDS011;8848;50.810;4.790;2022-08-18T05:10:54;6.78;;;6.28;;
17461;SDS011;8848;50.810;4.790;2022-08-18T05:13:23;6.25;;;5.82;;
17461;SDS011;8848;50.810;4.790;2022-08-18T05:15:54;6.65;;;6.15;;
17461;SDS011;8848;50.810;4.790;2022-08-18T05:18:20;6.22;;;5.72;;
17461;SDS011;8848;50.810;4.790;2022-08-18T05:20:48;6.03;;;5.63;;
17461;SDS011;8848;50.810;4.790;2022-08-18T05:23:15;6.07;;;5.68;;
17461;SDS011;8848;50.810;4.790;2022-08-18T05:25:41;6.38;;;5.88;;
17461;SDS011;8848;50.810;4.790;2022-08-18T05:28:07;6.63;;;6.03;;
17461;SDS011;8848;50.810;4.790;2022-08-18T05:30:33;6.47;;;5.97;;
17461;SDS011;8848;50.810;4.790;2022-08-18T05:33:01;6.53;;;6.03;;
17461;SDS011;8848;50.810;4.790;2022-08-18T05:35:30;6.63;;;6.13;;
17461;SDS011;8848;50.810;4.790;2022-08-18T05:41:02;6.28;;;5.88;;
17461;SDS011;8848;50.810;4.790;2022-08-18T05:43:29;6.43;;;5.93;;
17461;SDS011;8848;50.810;4.790;2022-08-18T05:45:55;6.38;;;5.88;;
17461;SDS011;8848;50.810;4.790;2022-08-18T05:48:23;6.65;;;6.15;;
17461;SDS011;8848;50.810;4.790;2022-08-18T05:50:49;7.35;;;6.85;;
17461;SDS011;8848;50.810;4.790;2022-08-18T05:53:15;7.10;;;6.60;;
17461;SDS011;8848;50.810;4.790;2022-08-18T05:56:05;7.28;;;6.78;;
17461;SDS011;8848;50.810;4.790;2022-08-18T05:58:50;6.90;;;6.40;;
17461;SDS011;8848;50.810;4.790;2022-08-18T06:01:21;7.40;;;6.82;;
17461;SDS011;8848;50.810;4.790;2022-08-18T06:03:52;7.38;;;6.88;;
17461;SDS011;8848;50.810;4.790;2022-08-18T06:06:21;7.47;;;6.88;;
17461;SDS011;8848;50.810;4.790;2022-08-18T06:08:55;7.05;;;6.55;;
17461;SDS011;8848;50.810;4.790;2022-08-18T06:11:22;7.65;;;7.05;;
17461;SDS011;8848;50.810;4.790;2022-08-18T06:13:49;6.85;;;6.35;;
17461;SDS011;8848;50.810;4.790;2022-08-18T06:16:21;7.63;;;7.10;;
17461;SDS011;8848;50.810;4.790;2022-08-18T06:24:30;7.88;;;7.28;;
17461;SDS011;8848;50.810;4.790;2022-08-18T06:32:20;7.57;;;6.97;;
17461;SDS011;8848;50.810;4.790;2022-08-18T06:40:26;7.57;;;6.97;;
17461;SDS011;8848;50.810;4.790;2022-08-18T06:42:52;8.10;;;7.50;;
17461;SDS011;8848;50.810;4.790;2022-08-18T06:45:18;7.28;;;6.78;;
17461;SDS011;8848;50.810;4.790;2022-08-18T06:53:17;6.82;;;6.32;;
17461;SDS011;8848;50.810;4.790;2022-08-18T06:55:44;7.45;;;6.95;;
17461;SDS011;8848;50.810;4.790;2022-08-18T07:03:16;6.60;;;6.10;;
17461;SDS011;8848;50.810;4.790;2022-08-18T07:05:58;6.82;;;6.22;;
17461;SDS011;8848;50.810;4.790;2022-08-18T07:11:44;6.03;;;5.63;;
17461;SDS011;8848;50.810;4.790;2022-08-18T07:13:50;6.90;;;6.40;;
17461;SDS011;8848;50.810;4.790;2022-08-18T07:16:21;6.28;;;5.78;;
17461;SDS011;8848;50.810;4.790;2022-08-18T07:18:47;6.55;;;6.05;;
17461;SDS011;8848;50.810;4.790;2022-08-18T07:21:29;7.13;;;6.55;;
17461;SDS011;8848;50.810;4.790;2022-08-18T07:27:02;5.88;;;5.47;;
17461;SDS011;8848;50.810;4.790;2022-08-18T07:29:30;6.75;;;6.25;;
17461;SDS011;8848;50.810;4.790;2022-08-18T07:31:57;7.03;;;6.53;;
17461;SDS011;8848;50.810;4.790;2022-08-18T07:34:57;6.63;;;6.13;;
17461;SDS011;8848;50.810;4.790;2022-08-18T07:39:49;6.07;;;5.57;;
17461;SDS011;8848;50.810;4.790;2022-08-18T07:42:19;5.55;;;5.15;;
17461;SDS011;8848;50.810;4.790;2022-08-18T07:44:57;6.32;;;5.93;;
17461;SDS011;8848;50.810;4.790;2022-08-18T07:47:26;6.00;;;5.60;;
17461;SDS011;8848;50.810;4.790;2022-08-18T07:49:55;6.28;;;5.78;;
17461;SDS011;8848;50.810;4.790;2022-08-18T07:52:30;6.32;;;5.82;;
17461;SDS011;8848;50.810;4.790;2022-08-18T07:55:05;5.97;;;5.47;;
17461;SDS011;8848;50.810;4.790;2022-08-18T07:57:41;6.38;;;5.88;;
17461;SDS011;8848;50.810;4.790;2022-08-18T08:03:53;6.32;;;5.80;;
17461;SDS011;8848;50.810;4.790;2022-08-18T08:05:50;6.38;;;5.88;;
17461;SDS011;8848;50.810;4.790;2022-08-18T08:08:19;6.50;;;6.00;;
17461;SDS011;8848;50.810;4.790;2022-08-18T08:10:50;6.78;;;6.28;;
17461;SDS011;8848;50.810;4.790;2022-08-18T08:13:26;6.57;;;6.07;;
17461;SDS011;8848;50.810;4.790;2022-08-18T08:21:05;6.40;;;6.00;;
17461;SDS011;8848;50.810;4.790;2022-08-18T08:29:00;5.93;;;5.53;;
17461;SDS011;8848;50.810;4.790;2022-08-18T08:31:34;6.40;;;5.90;;
17461;SDS011;8848;50.810;4.790;2022-08-18T08:36:33;6.82;;;6.22;;
17461;SDS011;8848;50.810;4.790;2022-08-18T08:39:02;7.28;;;6.68;;
17461;SDS011;8848;50.810;4.790;2022-08-18T08:44:05;6.68;;;6.18;;
17461;SDS011;8848;50.810;4.790;2022-08-18T08:46:36;7.28;;;6.78;;
17461;SDS011;8848;50.810;4.790;2022-08-18T08:49:07;6.32;;;5.82;;
17461;SDS011;8848;50.810;4.790;2022-08-18T08:51:37;6.05;;;5.57;;
17461;SDS011;8848;50.810;4.790;2022-08-18T08:54:18;6.53;;;6.13;;
17461;SDS011;8848;50.810;4.790;2022-08-18T08:56:48;6.07;;;5.68;;
17461;SDS011;8848;50.810;4.790;2022-08-18T08:59:15;6.30;;;5.88;;
17461;SDS011;8848;50.810;4.790;2022-08-18T09:07:18;6.50;;;6.00;;
17461;SDS011;8848;50.810;4.790;2022-08-18T09:17:53;6.93;;;6.43;;
17461;SDS011;8848;50.810;4.790;2022-08-18T09:28:09;6.78;;;6.28;;
17461;SDS011;8848;50.810;4.790;2022-08-18T09:30:44;6.47;;;6.07;;
17461;SDS011;8848;50.810;4.790;2022-08-18T09:38:30;6.85;;;6.35;;
17461;SDS011;8848;50.810;4.790;2022-08-18T09:41:26;6.43;;;5.95;;
17461;SDS011;8848;50.810;4.790;2022-08-18T09:44:04;7.03;;;6.43;;
17461;SDS011;8848;50.810;4.790;2022-08-18T09:51:48;6.55;;;6.05;;
17461;SDS011;8848;50.810;4.790;2022-08-18T09:54:15;6.07;;;5.68;;
17461;SDS011;8848;50.810;4.790;2022-08-18T10:01:59;6.30;;;5.80;;
17461;SDS011;8848;50.810;4.790;2022-08-18T10:04:29;6.05;;;5.65;;
17461;SDS011;8848;50.810;4.790;2022-08-18T10:07:12;6.95;;;6.40;;
17461;SDS011;8848;50.810;4.790;2022-08-18T10:19:50;6.00;;;5.60;;
17461;SDS011;8848;50.810;4.790;2022-08-18T10:22:52;6.43;;;5.93;;
17461;SDS011;8848;50.810;4.790;2022-08-18T10:25:11;6.28;;;5.88;;
17461;SDS011;8848;50.810;4.790;2022-08-18T10:32:54;6.55;;;6.05;;
17461;SDS011;8848;50.810;4.790;2022-08-18T10:38:11;7.03;;;6.53;;
17461;SDS011;8848;50.810;4.790;2022-08-18T10:40:39;6.32;;;5.88;;
17461;SDS011;8848;50.810;4.790;2022-08-18T10:43:17;5.97;;;5.57;;
17461;SDS011;8848;50.810;4.790;2022-08-18T10:45:48;5.53;;;5.13;;
17461;SDS011;8848;50.810;4.790;2022-08-18T10:48:18;6.43;;;5.93;;
17461;SDS011;8848;50.810;4.790;2022-08-18T10:53:47;6.72;;;6.28;;
17461;SDS011;8848;50.810;4.790;2022-08-18T10:56:09;6.25;;;5.85;;
17461;SDS011;8848;50.810;4.790;2022-08-18T11:01:20;6.43;;;6.00;;
17461;SDS011;8848;50.810;4.790;2022-08-18T11:06:20;6.45;;;6.03;;
17461;SDS011;8848;50.810;4.790;2022-08-18T11:08:49;6.35;;;5.85;;
17461;SDS011;8848;50.810;4.790;2022-08-18T11:11:19;6.75;;;6.25;;
17461;SDS011;8848;50.810;4.790;2022-08-18T11:18:48;6.35;;;5.85;;
17461;SDS011;8848;50.810;4.790;2022-08-18T11:21:23;6.93;;;6.35;;
17461;SDS011;8848;50.810;4.790;2022-08-18T11:26:41;6.05;;;5.65;;
17461;SDS011;8848;50.810;4.790;2022-08-18T11:29:18;6.32;;;5.82;;
17461;SDS011;8848;50.810;4.790;2022-08-18T11:31:45;6.43;;;5.93;;
17461;SDS011;8848;50.810;4.790;2022-08-18T11:34:12;6.95;;;6.45;;
17461;SDS011;8848;50.810;4.790;2022-08-18T11:36:39;6.32;;;5.93;;
17461;SDS011;8848;50.810;4.790;2022-08-18T11:39:08;6.57;;;6.03;;
17461;SDS011;8848;50.810;4.790;2022-08-18T11:41:35;6.65;;;6.15;;
17461;SDS011;8848;50.810;4.790;2022-08-18T11:44:02;6.47;;;5.97;;
17461;SDS011;8848;50.810;4.790;2022-08-18T11:46:35;6.22;;;5.82;;
17461;SDS011;8848;50.810;4.790;2022-08-18T11:49:16;5.82;;;5.38;;
17461;SDS011;8848;50.810;4.790;2022-08-18T11:51:59;5.88;;;5.47;;
17461;SDS011;8848;50.810;4.790;2022-08-18T11:54:34;6.22;;;5.72;;
17461;SDS011;8848;50.810;4.790;2022-08-18T11:59:46;5.88;;;5.47;;
17461;SDS011;8848;50.810;4.790;2022-08-18T12:02:15;6.63;;;6.13;;
17461;SDS011;8848;50.810;4.790;2022-08-18T12:04:42;6.20;;;5.80;;
17461;SDS011;8848;50.810;4.790;2022-08-18T12:07:09;6.07;;;5.68;;
17461;SDS011;8848;50.810;4.790;2022-08-18T12:09:37;6.30;;;5.80;;
17461;SDS011;8848;50.810;4.790;2022-08-18T12:12:23;6.63;;;6.13;;
17461;SDS011;8848;50.810;4.790;2022-08-18T12:17:16;5.65;;;5.25;;
17461;SDS011;8848;50.810;4.790;2022-08-18T12:19:42;5.80;;;5.40;;
17461;SDS011;8848;50.810;4.790;2022-08-18T12:22:13;6.00;;;5.60;;
17461;SDS011;8848;50.810;4.790;2022-08-18T12:24:40;5.78;;;5.38;;
17461;SDS011;8848;50.810;4.790;2022-08-18T12:27:06;5.55;;;5.15;;
17461;SDS011;8848;50.810;4.790;2022-08-18T12:29:32;5.53;;;5.13;;
17461;SDS011;8848;50.810;4.790;2022-08-18T12:31:58;5.47;;;5.07;;
17461;SDS011;8848;50.810;4.790;2022-08-18T12:34:24;5.90;;;5.50;;
17461;SDS011;8848;50.810;4.790;2022-08-18T12:36:54;5.43;;;5.03;;
17461;SDS011;8848;50.810;4.790;2022-08-18T12:39:21;5.80;;;5.40;;
17461;SDS011;8848;50.810;4.790;2022-08-18T12:41:47;5.20;;;4.90;;
17461;SDS011;8848;50.810;4.790;2022-08-18T12:44:13;5.63;;;5.22;;
17461;SDS011;8848;50.810;4.790;2022-08-18T12:46:40;5.10;;;4.72;;
17461;SDS011;8848;50.810;4.790;2022-08-18T12:49:06;5.55;;;5.15;;
17461;SDS011;8848;50.810;4.790;2022-08-18T12:51:35;5.25;;;4.85;;
17461;SDS011;8848;50.810;4.790;2022-08-18T12:54:01;4.78;;;4.47;;
17461;SDS011;8848;50.810;4.790;2022-08-18T12:56:28;5.72;;;5.32;;
17461;SDS011;8848;50.810;4.790;2022-08-18T12:58:55;4.78;;;4.47;;
17461;SDS011;8848;50.810;4.790;2022-08-18T13:01:21;5.35;;;4.97;;
17461;SDS011;8848;50.810;4.790;2022-08-18T13:03:49;5.10;;;4.70;;
17461;SDS011;8848;50.810;4.790;2022-08-18T13:06:15;4.65;;;4.35;;
17461;SDS011;8848;50.810;4.790;2022-08-18T13:08:41;5.30;;;4.90;;
17461;SDS011;8848;50.810;4.790;2022-08-18T13:11:07;5.70;;;5.30;;
17461;SDS011;8848;50.810;4.790;2022-08-18T13:13:35;5.18;;;4.78;;
17461;SDS011;8848;50.810;4.790;2022-08-18T13:16:01;5.07;;;4.72;;
17461;SDS011;8848;50.810;4.790;2022-08-18T13:18:27;5.30;;;4.90;;
17461;SDS011;8848;50.810;4.790;2022-08-18T13:20:54;5.00;;;4.70;;
17461;SDS011;8848;50.810;4.790;2022-08-18T13:23:21;5.07;;;4.78;;
17461;SDS011;8848;50.810;4.790;2022-08-18T13:25:46;5.57;;;5.10;;
17461;SDS011;8848;50.810;4.790;2022-08-18T13:28:12;4.53;;;4.22;;
17461;SDS011;8848;50.810;4.790;2022-08-18T13:30:38;4.95;;;4.55;;
17461;SDS011;8848;50.810;4.790;2022-08-18T13:33:05;4.65;;;4.30;;
17461;SDS011;8848;50.810;4.790;2022-08-18T13:35:32;4.95;;;4.65;;
17461;SDS011;8848;50.810;4.790;2022-08-18T13:37:58;5.07;;;4.75;;
17461;SDS011;8848;50.810;4.790;2022-08-18T13:40:24;4.80;;;4.50;;
17461;SDS011;8848;50.810;4.790;2022-08-18T13:42:50;5.20;;;4.80;;
17461;SDS011;8848;50.810;4.790;2022-08-18T13:45:18;5.10;;;4.70;;
17461;SDS011;8848;50.810;4.790;2022-08-18T13:47:45;5.53;;;5.13;;
17461;SDS011;8848;50.810;4.790;2022-08-18T13:50:11;4.72;;;4.38;;
17461;SDS011;8848;50.810;4.790;2022-08-18T13:52:38;4.80;;;4.50;;
17461;SDS011;8848;50.810;4.790;2022-08-18T13:55:05;4.70;;;4.40;;
17461;SDS011;8848;50.810;4.790;2022-08-18T13:57:33;5.15;;;4.78;;
17461;SDS011;8848;50.810;4.790;2022-08-18T13:59:59;4.97;;;4.57;;
17461;SDS011;8848;50.810;4.790;2022-08-18T14:02:25;4.95;;;4.60;;
17461;SDS011;8848;50.810;4.790;2022-08-18T14:04:51;4.95;;;4.65;;
17461;SDS011;8848;50.810;4.790;2022-08-18T14:07:19;4.93;;;4.53;;
17461;SDS011;8848;50.810;4.790;2022-08-18T14:09:46;4.60;;;4.30;;
17461;SDS011;8848;50.810;4.790;2022-08-18T14:12:15;5.00;;;4.60;;
17461;SDS011;8848;50.810;4.790;2022-08-18T14:14:42;5.05;;;4.75;;
17461;SDS011;8848;50.810;4.790;2022-08-18T14:17:08;4.40;;;4.10;;
17461;SDS011;8848;50.810;4.790;2022-08-18T14:19:34;4.57;;;4.28;;
17461;SDS011;8848;50.810;4.790;2022-08-18T14:22:19;4.95;;;4.55;;
17461;SDS011;8848;50.810;4.790;2022-08-18T14:25:04;5.00;;;4.60;;
17461;SDS011;8848;50.810;4.790;2022-08-18T14:27:49;4.22;;;3.92;;
17461;SDS011;8848;50.810;4.790;2022-08-18T14:30:15;4.78;;;4.47;;
17461;SDS011;8848;50.810;4.790;2022-08-18T14:32:42;4.97;;;4.68;;
17461;SDS011;8848;50.810;4.790;2022-08-18T14:35:10;4.93;;;4.55;;
17461;SDS011;8848;50.810;4.790;2022-08-18T14:37:36;4.88;;;4.57;;
17461;SDS011;8848;50.810;4.790;2022-08-18T14:40:02;5.00;;;4.60;;
17461;SDS011;8848;50.810;4.790;2022-08-18T14:42:29;5.30;;;4.97;;
17461;SDS011;8848;50.810;4.790;2022-08-18T14:44:55;5.03;;;4.63;;
17461;SDS011;8848;50.810;4.790;2022-08-18T14:47:22;5.35;;;4.95;;
17461;SDS011;8848;50.810;4.790;2022-08-18T14:49:51;4.90;;;4.50;;
17461;SDS011;8848;50.810;4.790;2022-08-18T14:52:17;4.82;;;4.53;;
17461;SDS011;8848;50.810;4.790;2022-08-18T14:54:43;5.30;;;4.90;;
17461;SDS011;8848;50.810;4.790;2022-08-18T14:57:10;5.00;;;4.63;;
17461;SDS011;8848;50.810;4.790;2022-08-18T14:59:36;5.47;;;5.07;;
17461;SDS011;8848;50.810;4.790;2022-08-18T15:02:03;5.38;;;4.97;;
17461;SDS011;8848;50.810;4.790;2022-08-18T15:04:29;5.38;;;5.07;;
17461;SDS011;8848;50.810;4.790;2022-08-18T15:06:55;5.47;;;5.07;;
17461;SDS011;8848;50.810;4.790;2022-08-18T15:09:21;4.93;;;4.63;;
17461;SDS011;8848;50.810;4.790;2022-08-18T15:11:47;5.50;;;5.10;;
17461;SDS011;8848;50.810;4.790;2022-08-18T15:14:15;5.75;;;5.35;;
17461;SDS011;8848;50.810;4.790;2022-08-18T15:16:41;5.70;;;5.30;;
17461;SDS011;8848;50.810;4.790;2022-08-18T15:19:07;5.78;;;5.40;;
17461;SDS011;8848;50.810;4.790;2022-08-18T15:21:33;5.22;;;4.88;;
17461;SDS011;8848;50.810;4.790;2022-08-18T15:24:18;5.57;;;5.07;;
17461;SDS011;8848;50.810;4.790;2022-08-18T15:27:02;5.60;;;5.20;;
17461;SDS011;8848;50.810;4.790;2022-08-18T15:29:29;5.78;;;5.38;;
17461;SDS011;8848;50.810;4.790;2022-08-18T15:31:56;5.60;;;5.20;;
17461;SDS011;8848;50.810;4.790;2022-08-18T15:34:22;5.70;;;5.30;;
17461;SDS011;8848;50.810;4.790;2022-08-18T15:36:48;5.70;;;5.30;;
17461;SDS011;8848;50.810;4.790;2022-08-18T15:39:15;5.72;;;5.32;;
17461;SDS011;8848;50.810;4.790;2022-08-18T15:41:42;5.50;;;5.10;;
17461;SDS011;8848;50.810;4.790;2022-08-18T15:44:14;5.68;;;5.28;;
17461;SDS011;8848;50.810;4.790;2022-08-18T15:46:40;5.30;;;4.97;;
17461;SDS011;8848;50.810;4.790;2022-08-18T15:49:06;5.70;;;5.30;;
17461;SDS011;8848;50.810;4.790;2022-08-18T15:51:33;6.00;;;5.60;;
17461;SDS011;8848;50.810;4.790;2022-08-18T15:54:00;5.60;;;5.20;;
17461;SDS011;8848;50.810;4.790;2022-08-18T15:56:27;5.50;;;5.10;;
17461;SDS011;8848;50.810;4.790;2022-08-18T15:58:53;5.60;;;5.30;;
17461;SDS011;8848;50.810;4.790;2022-08-18T16:01:20;5.78;;;5.28;;
17461;SDS011;8848;50.810;4.790;2022-08-18T16:03:46;5.97;;;5.57;;
17461;SDS011;8848;50.810;4.790;2022-08-18T16:06:14;5.75;;;5.25;;
17461;SDS011;8848;50.810;4.790;2022-08-18T16:08:41;5.60;;;5.20;;
17461;SDS011;8848;50.810;4.790;2022-08-18T16:11:08;5.75;;;5.35;;
17461;SDS011;8848;50.810;4.790;2022-08-18T16:13:34;6.00;;;5.60;;
17461;SDS011;8848;50.810;4.790;2022-08-18T16:16:07;5.43;;;5.03;;
17461;SDS011;8848;50.810;4.790;2022-08-18T16:18:33;5.47;;;5.18;;
17461;SDS011;8848;50.810;4.790;2022-08-18T16:21:06;5.85;;;5.40;;
17461;SDS011;8848;50.810;4.790;2022-08-18T16:23:43;5.95;;;5.55;;
17461;SDS011;8848;50.810;4.790;2022-08-18T16:26:11;5.90;;;5.47;;
17461;SDS011;8848;50.810;4.790;2022-08-18T16:28:39;5.90;;;5.47;;
17461;SDS011;8848;50.810;4.790;2022-08-18T16:31:05;5.85;;;5.45;;
17461;SDS011;8848;50.810;4.790;2022-08-18T16:33:31;6.35;;;5.90;;
17461;SDS011;8848;50.810;4.790;2022-08-18T16:36:04;6.13;;;5.72;;
17461;SDS011;8848;50.810;4.790;2022-08-18T16:38:31;6.00;;;5.60;;
17461;SDS011;8848;50.810;4.790;2022-08-18T16:41:02;5.88;;;5.47;;
17461;SDS011;8848;50.810;4.790;2022-08-18T16:43:30;6.57;;;6.07;;
17461;SDS011;8848;50.810;4.790;2022-08-18T16:45:56;6.60;;;6.13;;
17461;SDS011;8848;50.810;4.790;2022-08-18T16:48:22;6.78;;;6.28;;
17461;SDS011;8848;50.810;4.790;2022-08-18T16:50:49;6.95;;;6.45;;
17461;SDS011;8848;50.810;4.790;2022-08-18T16:53:15;7.13;;;6.63;;
17461;SDS011;8848;50.810;4.790;2022-08-18T16:55:42;6.93;;;6.43;;
17461;SDS011;8848;50.810;4.790;2022-08-18T16:58:08;6.90;;;6.40;;
17461;SDS011;8848;50.810;4.790;2022-08-18T17:00:54;6.47;;;6.07;;
17461;SDS011;8848;50.810;4.790;2022-08-18T17:03:39;6.47;;;6.07;;
17461;SDS011;8848;50.810;4.790;2022-08-18T17:06:23;7.15;;;6.65;;
17461;SDS011;8848;50.810;4.790;2022-08-18T17:08:52;7.20;;;6.70;;
17461;SDS011;8848;50.810;4.790;2022-08-18T17:11:19;6.70;;;6.20;;
17461;SDS011;8848;50.810;4.790;2022-08-18T17:13:46;7.07;;;6.57;;
17461;SDS011;8848;50.810;4.790;2022-08-18T17:16:12;7.10;;;6.60;;
17461;SDS011;8848;50.810;4.790;2022-08-18T17:18:39;6.82;;;6.32;;
17461;SDS011;8848;50.810;4.790;2022-08-18T17:21:06;6.40;;;5.90;;
17461;SDS011;8848;50.810;4.790;2022-08-18T17:23:32;6.63;;;6.20;;
17461;SDS011;8848;50.810;4.790;2022-08-18T17:25:58;6.90;;;6.40;;
17461;SDS011;8848;50.810;4.790;2022-08-18T17:28:26;6.68;;;6.20;;